createdAt,value
2023-05-08T00:00:30.816Z,6.75
2023-05-08T00:01:03.007Z,30.20
2023-05-08T00:01:35.295Z,5.93
2023-05-08T00:02:10.013Z,14.18
2023-05-08T00:02:42.718Z,9.30
2023-05-08T00:03:15.097Z,13.23
2023-05-08T00:03:50.139Z,8.48
2023-05-08T00:04:22.686Z,29.73
2023-05-08T00:04:54.944Z,6.10
2023-05-08T00:05:29.710Z,25.25
2023-05-08T00:06:04.653Z,20.02
2023-05-08T00:06:36.866Z,24.60
2023-05-08T00:07:11.663Z,6.70
2023-05-08T00:07:44.202Z,38.63
2023-05-08T00:08:16.472Z,7.47
2023-05-08T00:08:51.335Z,21.08
2023-05-08T00:09:23.529Z,48.95
2023-05-08T00:09:55.781Z,34.33
2023-05-08T00:10:28.579Z,12.00
2023-05-08T00:11:05.932Z,23.30
2023-05-08T00:11:38.142Z,13.25
2023-05-08T00:12:10.293Z,13.35
2023-05-08T00:12:45.155Z,13.65
2023-05-08T00:13:17.627Z,14.55
2023-05-08T00:13:49.816Z,27.50
2023-05-08T00:14:24.672Z,21.98
2023-05-08T00:14:56.971Z,13.90
2023-05-08T00:15:29.207Z,25.77
2023-05-08T00:16:04.074Z,13.23
2023-05-08T00:16:36.317Z,19.50
2023-05-08T00:17:08.772Z,25.33
2023-05-08T00:17:43.639Z,13.13
2023-05-08T00:18:16.596Z,6.80
2023-05-08T00:18:48.822Z,21.17
2023-05-08T00:19:23.645Z,10.43
2023-05-08T00:19:56.144Z,8.93
2023-05-08T00:20:28.261Z,10.13
2023-05-08T00:21:03.043Z,6.88
2023-05-08T00:21:35.279Z,16.63
2023-05-08T00:22:07.435Z,26.08
2023-05-08T00:22:42.250Z,12.15
2023-05-08T00:23:14.447Z,10.18
2023-05-08T00:23:46.952Z,41.55
2023-05-08T00:24:21.685Z,15.18
2023-05-08T00:24:53.912Z,4.18
2023-05-08T00:25:27.101Z,11.90
2023-05-08T00:26:01.863Z,16.83
2023-05-08T00:26:36.691Z,6.68
2023-05-08T00:27:08.887Z,5.15
2023-05-08T00:27:43.691Z,8.48
2023-05-08T00:28:15.870Z,19.25
2023-05-08T00:28:48.290Z,6.03
2023-05-08T00:29:23.180Z,5.93
2023-05-08T00:29:55.590Z,19.70
2023-05-08T00:30:28.046Z,28.30
2023-05-08T00:31:04.251Z,5.40
2023-05-08T00:31:36.632Z,7.25
2023-05-08T00:32:09.170Z,17.77
2023-05-08T00:32:44.023Z,32.22
2023-05-08T00:33:16.329Z,12.05
2023-05-08T00:33:48.498Z,39.78
2023-05-08T00:34:23.823Z,19.35
2023-05-08T00:34:56.136Z,20.10
2023-05-08T00:35:28.376Z,8.05
2023-05-08T00:36:03.703Z,30.20
2023-05-08T00:36:36.020Z,20.08
2023-05-08T00:37:08.311Z,16.95
2023-05-08T00:37:43.953Z,14.45
2023-05-08T00:38:16.602Z,20.10
2023-05-08T00:38:48.830Z,8.95
2023-05-08T00:39:23.676Z,21.45
2023-05-08T00:39:56.104Z,9.32
2023-05-08T00:40:28.589Z,25.38
2023-05-08T00:41:03.717Z,6.72
2023-05-08T00:41:38.564Z,26.42
2023-05-08T00:42:10.716Z,13.80
2023-05-08T00:42:45.450Z,30.25
2023-05-08T00:43:17.740Z,10.93
2023-05-08T00:43:49.947Z,17.90
2023-05-08T00:44:22.097Z,14.90
2023-05-08T00:44:56.900Z,15.82
2023-05-08T00:45:34.924Z,15.43
2023-05-08T00:46:10.012Z,11.10
2023-05-08T00:46:46.821Z,24.63
2023-05-08T00:47:20.778Z,22.50
2023-05-08T00:47:55.660Z,8.43
2023-05-08T00:48:31.002Z,9.60
2023-05-08T00:49:03.697Z,17.05
2023-05-08T00:49:38.741Z,26.80
2023-05-08T00:50:11.800Z,6.47
2023-05-08T00:50:44.529Z,16.58
2023-05-08T00:51:17.097Z,12.20
2023-05-08T00:51:55.391Z,22.17
2023-05-08T00:52:30.263Z,10.48
2023-05-08T00:53:04.248Z,13.13
2023-05-08T00:53:43.095Z,22.95
2023-05-08T00:54:16.806Z,13.02
2023-05-08T00:54:49.912Z,23.42
2023-05-08T00:55:25.291Z,12.32
2023-05-08T00:55:58.447Z,12.98
2023-05-08T00:56:32.742Z,15.68
2023-05-08T00:57:11.821Z,6.13
2023-05-08T00:57:47.351Z,29.35
2023-05-08T00:58:19.874Z,7.78
2023-05-08T00:58:55.095Z,12.48
2023-05-08T00:59:27.874Z,12.35
2023-05-08T01:00:02.190Z,14.38
2023-05-08T01:00:34.902Z,8.15
2023-05-08T01:01:10.039Z,8.05
2023-05-08T01:01:43.727Z,23.92
2023-05-08T01:02:16.497Z,9.93
2023-05-08T01:02:51.761Z,29.95
2023-05-08T01:03:24.500Z,9.50
2023-05-08T01:03:57.477Z,11.27
2023-05-08T01:04:33.548Z,11.52
2023-05-08T01:05:06.881Z,5.45
2023-05-08T01:05:39.354Z,28.33
2023-05-08T01:06:14.404Z,8.93
2023-05-08T01:06:46.574Z,30.10
2023-05-08T01:07:19.281Z,13.82
2023-05-08T01:07:54.178Z,32.22
2023-05-08T01:08:26.354Z,16.50
2023-05-08T01:08:59.232Z,21.35
2023-05-08T01:09:34.627Z,4.43
2023-05-08T01:10:07.997Z,11.50
2023-05-08T01:10:50.429Z,10.02
2023-05-08T01:11:31.837Z,9.38
2023-05-08T01:12:15.529Z,16.08
2023-05-08T01:13:02.181Z,33.05
2023-05-08T01:13:46.168Z,13.20
2023-05-08T01:14:24.129Z,13.35
2023-05-08T01:15:06.511Z,8.73
2023-05-08T01:15:44.118Z,18.13
2023-05-08T01:16:22.080Z,12.43
2023-05-08T01:17:04.215Z,30.73
2023-05-08T01:17:50.686Z,16.25
2023-05-08T01:18:32.750Z,13.00
2023-05-08T01:19:23.210Z,5.88
2023-05-08T01:20:04.092Z,19.10
2023-05-08T01:20:47.925Z,23.13
2023-05-08T01:21:27.288Z,6.10
2023-05-08T01:22:08.446Z,39.70
2023-05-08T01:23:10.141Z,32.00
2023-05-08T01:24:03.758Z,16.13
2023-05-08T01:25:11.606Z,8.75
2023-05-08T01:26:18.928Z,34.85
2023-05-08T01:27:26.492Z,22.15
2023-05-08T01:28:19.555Z,20.55
2023-05-08T01:29:25.756Z,30.02
2023-05-08T01:30:19.795Z,10.18
2023-05-08T01:31:19.582Z,15.90
2023-05-08T01:32:06.177Z,26.05
2023-05-08T01:32:44.191Z,7.07
2023-05-08T01:33:25.190Z,5.57
2023-05-08T01:34:08.013Z,44.03
2023-05-08T01:34:46.773Z,18.90
2023-05-08T01:35:28.289Z,21.08
2023-05-08T01:36:06.861Z,14.65
2023-05-08T01:36:47.797Z,48.20
2023-05-08T01:37:42.325Z,20.00
2023-05-08T01:38:23.002Z,28.40
2023-05-08T01:39:05.527Z,20.88
2023-05-08T01:39:47.624Z,22.77
2023-05-08T01:40:28.716Z,9.85
2023-05-08T01:41:07.548Z,32.92
2023-05-08T01:41:45.535Z,12.32
2023-05-08T01:42:24.889Z,24.48
2023-05-08T01:43:10.845Z,16.45
2023-05-08T01:43:55.742Z,16.98
2023-05-08T01:44:36.884Z,22.90
2023-05-08T01:45:17.220Z,11.63
2023-05-08T01:45:52.055Z,31.50
2023-05-08T01:46:31.054Z,19.77
2023-05-08T01:47:08.229Z,16.90
2023-05-08T01:47:42.526Z,21.30
2023-05-08T01:48:22.548Z,20.17
2023-05-08T01:49:00.806Z,15.95
2023-05-08T01:49:37.375Z,14.55
2023-05-08T01:50:19.662Z,10.18
2023-05-08T01:50:58.668Z,40.67
2023-05-08T01:51:36.807Z,13.10
2023-05-08T01:52:18.826Z,23.52
2023-05-08T01:52:58.403Z,37.42
2023-05-08T01:53:35.190Z,46.47
2023-05-08T01:54:14.324Z,31.60
2023-05-08T01:54:54.627Z,24.13
2023-05-08T01:55:30.851Z,15.95
2023-05-08T01:56:13.567Z,49.65
2023-05-08T01:56:48.827Z,31.48
2023-05-08T01:57:24.614Z,16.02
2023-05-08T01:58:02.482Z,44.45
2023-05-08T01:58:37.096Z,16.60
2023-05-08T01:59:14.043Z,39.72
2023-05-08T01:59:52.594Z,39.08
2023-05-08T02:00:27.402Z,37.28
2023-05-08T02:01:02.350Z,21.30
2023-05-08T02:01:37.888Z,8.07
2023-05-08T02:02:13.915Z,32.95
2023-05-08T02:02:47.801Z,12.85
2023-05-08T02:03:24.579Z,24.50
2023-05-08T02:03:58.606Z,30.25
2023-05-08T02:04:33.795Z,17.10
2023-05-08T02:05:11.103Z,18.63
2023-05-08T02:05:44.416Z,12.25
2023-05-08T02:06:20.619Z,12.20
2023-05-08T02:06:57.152Z,28.95
2023-05-08T02:07:29.425Z,7.68
2023-05-08T02:08:03.265Z,33.60
2023-05-08T02:08:39.116Z,16.20
2023-05-08T02:09:12.851Z,19.70
2023-05-08T02:09:45.524Z,11.65
2023-05-08T02:10:23.949Z,20.33
2023-05-08T02:10:58.056Z,8.75
2023-05-08T02:11:32.826Z,8.98
2023-05-08T02:12:10.911Z,7.10
2023-05-08T02:12:44.373Z,17.17
2023-05-08T02:13:20.346Z,3.10
2023-05-08T02:13:55.780Z,22.40
2023-05-08T02:14:30.615Z,32.67
2023-05-08T02:15:03.716Z,44.47
2023-05-08T02:15:40.663Z,4.20
2023-05-08T02:16:13.734Z,5.80
2023-05-08T02:16:48.961Z,8.68
2023-05-08T02:17:27.518Z,16.92
2023-05-08T02:18:00.602Z,51.40
2023-05-08T02:18:33.706Z,10.23
2023-05-08T02:19:11.489Z,8.05
2023-05-08T02:19:44.947Z,40.42
2023-05-08T02:20:19.047Z,13.18
2023-05-08T02:20:55.035Z,22.30
2023-05-08T02:21:28.088Z,9.15
2023-05-08T02:22:01.510Z,20.23
2023-05-08T02:22:37.767Z,10.38
2023-05-08T02:23:10.652Z,8.77
2023-05-08T02:23:45.576Z,9.65
2023-05-08T02:24:21.622Z,23.75
2023-05-08T02:24:55.902Z,24.67
2023-05-08T02:25:29.669Z,20.33
2023-05-08T02:26:04.181Z,36.42
2023-05-08T02:26:41.175Z,11.18
2023-05-08T02:27:15.091Z,21.73
2023-05-08T02:27:50.935Z,4.25
2023-05-08T02:28:27.446Z,5.15
2023-05-08T02:29:02.769Z,48.97
2023-05-08T02:29:35.998Z,12.88
2023-05-08T02:30:13.582Z,11.18
2023-05-08T02:30:47.650Z,20.80
2023-05-08T02:31:21.214Z,10.60
2023-05-08T02:31:58.207Z,11.90
2023-05-08T02:32:34.855Z,44.22
2023-05-08T02:33:09.740Z,26.13
2023-05-08T02:33:46.343Z,22.70
2023-05-08T02:34:20.651Z,40.60
2023-05-08T02:35:03.136Z,10.05
2023-05-08T02:35:41.922Z,30.70
2023-05-08T02:36:18.098Z,12.75
2023-05-08T02:36:52.863Z,14.30
2023-05-08T02:37:29.646Z,14.95
2023-05-08T02:38:02.573Z,27.23
2023-05-08T02:38:37.901Z,8.68
2023-05-08T02:39:16.742Z,14.32
2023-05-08T02:39:52.304Z,31.77
2023-05-08T02:40:28.090Z,52.33
2023-05-08T02:41:07.468Z,19.88
2023-05-08T02:41:42.237Z,27.50
2023-05-08T02:42:15.505Z,20.00
2023-05-08T02:42:47.815Z,20.40
2023-05-08T02:43:22.781Z,18.75
2023-05-08T02:43:56.104Z,9.18
2023-05-08T02:44:28.680Z,30.25
2023-05-08T02:45:03.686Z,24.88
2023-05-08T02:45:40.979Z,25.30
2023-05-08T02:46:16.497Z,15.10
2023-05-08T02:46:56.712Z,22.70
2023-05-08T02:47:42.668Z,4.28
2023-05-08T02:48:25.632Z,11.45
2023-05-08T02:49:03.904Z,21.25
2023-05-08T02:49:43.959Z,13.65
2023-05-08T02:50:22.360Z,32.22
2023-05-08T02:51:00.655Z,17.58
2023-05-08T02:51:44.159Z,26.15
2023-05-08T02:52:25.882Z,6.95
2023-05-08T02:53:05.212Z,35.17
2023-05-08T02:53:45.070Z,20.38
2023-05-08T02:54:28.184Z,11.52
2023-05-08T02:55:04.944Z,65.28
2023-05-08T02:55:46.895Z,24.95
2023-05-08T02:56:27.909Z,25.95
2023-05-08T02:57:06.814Z,42.65
2023-05-08T02:57:49.876Z,46.03
2023-05-08T02:58:30.226Z,9.18
2023-05-08T02:59:15.202Z,5.57
2023-05-08T02:59:57.333Z,41.10
2023-05-08T03:00:33.330Z,49.95
2023-05-08T03:01:16.526Z,7.88
2023-05-08T03:01:53.016Z,4.57
2023-05-08T03:02:40.686Z,26.70
2023-05-08T03:03:21.494Z,9.75
2023-05-08T03:04:00.985Z,23.20
2023-05-08T03:04:39.727Z,11.43
2023-05-08T03:05:17.275Z,32.85
2023-05-08T03:05:55.200Z,12.73
2023-05-08T03:06:36.487Z,12.82
2023-05-08T03:07:09.510Z,54.53
2023-05-08T03:07:45.268Z,20.50
2023-05-08T03:08:24.990Z,33.63
2023-05-08T03:09:02.873Z,6.68
2023-05-08T03:09:45.962Z,15.68
2023-05-08T03:10:21.984Z,10.38
2023-05-08T03:10:58.300Z,18.88
2023-05-08T03:11:41.683Z,27.23
2023-05-08T03:12:19.408Z,46.55
2023-05-08T03:12:56.300Z,15.80
2023-05-08T03:13:34.164Z,7.45
2023-05-08T03:14:10.171Z,44.25
2023-05-08T03:14:47.374Z,19.95
2023-05-08T03:15:28.735Z,30.95
2023-05-08T03:16:04.106Z,15.18
2023-05-08T03:16:39.026Z,35.97
2023-05-08T03:17:18.863Z,24.70
2023-05-08T03:17:56.627Z,16.27
2023-05-08T03:18:34.147Z,26.52
2023-05-08T03:19:13.382Z,40.22
2023-05-08T03:19:50.250Z,21.88
2023-05-08T03:20:25.065Z,21.10
2023-05-08T03:21:02.248Z,16.10
2023-05-08T03:21:37.506Z,12.88
2023-05-08T03:22:11.895Z,47.53
2023-05-08T03:22:47.005Z,18.10
2023-05-08T03:23:24.602Z,13.38
2023-05-08T03:23:59.980Z,42.33
2023-05-08T03:24:36.721Z,20.00
2023-05-08T03:25:14.223Z,15.95
2023-05-08T03:25:46.732Z,44.67
2023-05-08T03:26:20.529Z,11.18
2023-05-08T03:26:56.262Z,19.70
2023-05-08T03:27:29.844Z,24.27
2023-05-08T03:28:05.472Z,5.72
2023-05-08T03:28:42.147Z,26.13
2023-05-08T03:29:16.831Z,36.90
2023-05-08T03:29:51.124Z,16.48
2023-05-08T03:30:28.161Z,85.30
2023-05-08T03:31:07.500Z,18.90
2023-05-08T03:31:40.657Z,28.92
2023-05-08T03:32:17.093Z,35.80
2023-05-08T03:32:50.808Z,14.45
2023-05-08T03:33:27.100Z,42.17
2023-05-08T03:34:00.429Z,19.33
2023-05-08T03:34:37.047Z,49.03
2023-05-08T03:35:10.666Z,70.55
2023-05-08T03:35:43.753Z,43.72
2023-05-08T03:36:18.933Z,17.85
2023-05-08T03:36:51.580Z,29.95
2023-05-08T03:37:24.486Z,42.65
2023-05-08T03:37:59.327Z,28.50
2023-05-08T03:38:31.832Z,12.55
2023-05-08T03:39:04.351Z,38.67
2023-05-08T03:39:39.270Z,42.97
2023-05-08T03:40:12.798Z,82.25
2023-05-08T03:40:45.724Z,35.75
2023-05-08T03:41:21.368Z,24.83
2023-05-08T03:41:55.647Z,41.50
2023-05-08T03:42:28.738Z,19.13
2023-05-08T03:43:04.702Z,13.40
2023-05-08T03:43:38.322Z,25.80
2023-05-08T03:44:12.112Z,52.78
2023-05-08T03:44:46.911Z,22.80
2023-05-08T03:45:20.649Z,17.27
2023-05-08T03:45:53.720Z,34.08
2023-05-08T03:46:29.165Z,10.77
2023-05-08T03:47:03.855Z,51.20
2023-05-08T03:47:36.538Z,20.38
2023-05-08T03:48:12.393Z,23.92
2023-05-08T03:48:48.727Z,16.23
2023-05-08T03:49:25.485Z,26.40
2023-05-08T03:50:00.815Z,30.10
2023-05-08T03:50:35.761Z,38.95
2023-05-08T03:51:11.370Z,32.83
2023-05-08T03:51:44.931Z,19.83
2023-05-08T03:52:17.656Z,26.83
2023-05-08T03:52:53.558Z,44.75
2023-05-08T03:53:26.526Z,13.50
2023-05-08T03:53:59.141Z,17.63
2023-05-08T03:54:34.020Z,40.50
2023-05-08T03:55:07.792Z,20.30
2023-05-08T03:55:41.646Z,26.30
2023-05-08T03:56:17.756Z,52.60
2023-05-08T03:56:49.975Z,35.08
2023-05-08T03:57:28.139Z,22.67
2023-05-08T03:58:07.979Z,14.85
2023-05-08T03:58:48.861Z,27.77
2023-05-08T03:59:28.451Z,38.97
2023-05-08T04:00:06.949Z,16.42
2023-05-08T04:00:57.606Z,30.00
2023-05-08T04:01:42.327Z,36.47
2023-05-08T04:02:23.350Z,63.33
2023-05-08T04:03:05.775Z,33.30
2023-05-08T04:03:57.604Z,25.25
2023-05-08T04:04:38.855Z,41.78
2023-05-08T04:05:23.875Z,29.33
2023-05-08T04:06:03.386Z,22.30
2023-05-08T04:06:49.408Z,17.60
2023-05-08T04:07:32.265Z,38.22
2023-05-08T04:08:15.988Z,31.50
2023-05-08T04:08:54.124Z,26.27
2023-05-08T04:09:34.648Z,42.53
2023-05-08T04:10:12.618Z,37.45
2023-05-08T04:10:51.146Z,37.13
2023-05-08T04:11:33.485Z,31.15
2023-05-08T04:12:15.171Z,60.67
2023-05-08T04:12:57.654Z,28.60
2023-05-08T04:13:35.338Z,33.22
2023-05-08T04:14:10.659Z,29.35
2023-05-08T04:14:45.753Z,42.13
2023-05-08T04:15:24.594Z,28.38
2023-05-08T04:16:05.882Z,36.17
2023-05-08T04:16:46.214Z,24.80
2023-05-08T04:17:31.150Z,51.28
2023-05-08T04:18:07.430Z,23.48
2023-05-08T04:18:47.157Z,33.78
2023-05-08T04:19:27.782Z,12.98
2023-05-08T04:20:04.398Z,14.23
2023-05-08T04:20:40.778Z,45.65
2023-05-08T04:21:21.676Z,42.80
2023-05-08T04:21:57.685Z,40.72
2023-05-08T04:22:32.860Z,54.22
2023-05-08T04:23:09.522Z,40.58
2023-05-08T04:23:44.101Z,29.75
2023-05-08T04:24:17.946Z,24.40
2023-05-08T04:24:56.028Z,66.32
2023-05-08T04:25:30.271Z,22.75
2023-05-08T04:26:05.585Z,30.55
2023-05-08T04:26:41.178Z,28.38
2023-05-08T04:27:13.903Z,40.08
2023-05-08T04:27:48.069Z,37.03
2023-05-08T04:28:23.906Z,25.08
2023-05-08T04:28:57.252Z,23.30
2023-05-08T04:29:30.266Z,36.75
2023-05-08T04:30:05.855Z,41.80
2023-05-08T04:30:40.762Z,66.72
2023-05-08T04:31:14.687Z,28.10
2023-05-08T04:31:51.046Z,54.72
2023-05-08T04:32:24.156Z,72.90
2023-05-08T04:32:56.767Z,49.83
2023-05-08T04:33:32.730Z,60.53
2023-05-08T04:34:05.198Z,31.65
2023-05-08T04:34:42.970Z,17.88
2023-05-08T04:35:15.476Z,30.05
2023-05-08T04:35:49.331Z,51.17
2023-05-08T04:36:25.756Z,45.97
2023-05-08T04:36:57.979Z,53.60
2023-05-08T04:37:31.945Z,45.22
2023-05-08T04:38:08.568Z,51.25
2023-05-08T04:38:41.260Z,56.20
2023-05-08T04:39:14.285Z,31.35
2023-05-08T04:39:53.707Z,44.03
2023-05-08T04:40:26.629Z,69.88
2023-05-08T04:40:58.882Z,21.25
2023-05-08T04:41:33.853Z,71.13
2023-05-08T04:42:06.341Z,67.80
2023-05-08T04:42:43.166Z,63.55
2023-05-08T04:43:18.188Z,50.47
2023-05-08T04:43:50.779Z,90.13
2023-05-08T04:44:23.914Z,84.47
2023-05-08T04:44:58.938Z,77.22
2023-05-08T04:45:31.170Z,38.53
2023-05-08T04:46:06.296Z,37.83
2023-05-08T04:46:41.205Z,91.47
2023-05-08T04:47:13.590Z,41.97
2023-05-08T04:47:46.051Z,67.28
2023-05-08T04:48:20.898Z,52.20
2023-05-08T04:48:53.160Z,72.78
2023-05-08T04:49:25.435Z,82.72
2023-05-08T04:50:03.351Z,35.28
2023-05-08T04:50:37.652Z,59.53
2023-05-08T04:51:09.819Z,58.33
2023-05-08T04:51:44.648Z,27.75
2023-05-08T04:52:16.810Z,26.08
2023-05-08T04:52:51.561Z,32.45
2023-05-08T04:53:23.908Z,52.15
2023-05-08T04:53:56.097Z,32.50
2023-05-08T04:54:30.853Z,40.60
2023-05-08T04:55:03.192Z,38.30
2023-05-08T04:55:38.678Z,72.80
2023-05-08T04:56:13.911Z,51.90
2023-05-08T04:56:46.118Z,53.35
2023-05-08T04:57:18.386Z,39.33
2023-05-08T04:57:53.193Z,24.92
2023-05-08T04:58:25.425Z,78.93
2023-05-08T04:58:57.749Z,52.85
2023-05-08T04:59:33.188Z,63.78
2023-05-08T05:00:06.932Z,23.25
2023-05-08T05:00:43.056Z,28.25
2023-05-08T05:01:17.845Z,38.45
2023-05-08T05:01:50.293Z,44.70
2023-05-08T05:02:22.474Z,50.85
2023-05-08T05:02:57.492Z,57.63
2023-05-08T05:03:29.724Z,60.88
2023-05-08T05:04:02.204Z,47.00
2023-05-08T05:04:37.342Z,50.72
2023-05-08T05:05:13.514Z,52.53
2023-05-08T05:05:46.397Z,42.67
2023-05-08T05:06:21.467Z,37.03
2023-05-08T05:06:53.920Z,35.75
2023-05-08T05:07:26.260Z,34.47
2023-05-08T05:08:01.125Z,55.58
2023-05-08T05:08:33.335Z,59.33
2023-05-08T05:09:05.776Z,31.15
2023-05-08T05:09:40.637Z,35.17
2023-05-08T05:10:13.348Z,90.28
2023-05-08T05:10:45.787Z,54.63
2023-05-08T05:11:21.647Z,67.32
2023-05-08T05:11:53.872Z,26.58
2023-05-08T05:12:26.476Z,63.92
2023-05-08T05:13:01.382Z,75.43
2023-05-08T05:13:33.905Z,67.22
2023-05-08T05:14:07.466Z,25.75
2023-05-08T05:14:42.474Z,21.85
2023-05-08T05:15:14.897Z,45.90
2023-05-08T05:15:47.377Z,65.55
2023-05-08T05:16:22.935Z,91.72
2023-05-08T05:16:55.170Z,51.45
2023-05-08T05:17:27.947Z,15.02
2023-05-08T05:18:02.857Z,39.15
2023-05-08T05:18:35.264Z,73.13
2023-05-08T05:19:07.591Z,52.38
2023-05-08T05:19:42.886Z,41.28
2023-05-08T05:20:17.950Z,73.07
2023-05-08T05:20:50.217Z,53.97
2023-05-08T05:21:25.019Z,53.45
2023-05-08T05:21:57.377Z,53.92
2023-05-08T05:22:29.570Z,61.13
2023-05-08T05:23:01.725Z,110.28
2023-05-08T05:23:36.520Z,103.30
2023-05-08T05:24:09.323Z,65.45
2023-05-08T05:24:42.357Z,55.22
2023-05-08T05:25:17.387Z,55.80
2023-05-08T05:25:50.540Z,45.38
2023-05-08T05:26:23.470Z,76.57
2023-05-08T05:26:58.731Z,81.20
2023-05-08T05:27:31.238Z,80.28
2023-05-08T05:28:03.773Z,63.78
2023-05-08T05:28:38.589Z,100.20
2023-05-08T05:29:11.525Z,79.63
2023-05-08T05:29:44.125Z,80.60
2023-05-08T05:30:19.217Z,37.22
2023-05-08T05:30:51.491Z,32.88
2023-05-08T05:31:23.818Z,74.30
2023-05-08T05:31:58.870Z,112.45
2023-05-08T05:32:31.297Z,54.95
2023-05-08T05:33:03.684Z,59.42
2023-05-08T05:33:39.520Z,92.18
2023-05-08T05:34:12.842Z,71.13
2023-05-08T05:34:45.726Z,63.88
2023-05-08T05:35:25.381Z,48.03
2023-05-08T05:35:57.790Z,67.80
2023-05-08T05:36:30.939Z,102.93
2023-05-08T05:37:05.704Z,51.25
2023-05-08T05:37:37.982Z,102.00
2023-05-08T05:38:10.602Z,66.13
2023-05-08T05:38:42.763Z,73.35
2023-05-08T05:39:17.659Z,42.83
2023-05-08T05:39:49.980Z,57.83
2023-05-08T05:40:22.238Z,31.58
2023-05-08T05:40:57.130Z,77.95
2023-05-08T05:41:29.359Z,93.20
2023-05-08T05:42:01.562Z,86.72
2023-05-08T05:42:36.674Z,95.88
2023-05-08T05:43:09.126Z,81.22
2023-05-08T05:43:41.502Z,39.65
2023-05-08T05:44:16.351Z,44.05
2023-05-08T05:44:48.494Z,43.20
2023-05-08T05:45:20.790Z,73.35
2023-05-08T05:45:56.216Z,27.30
2023-05-08T05:46:32.763Z,60.22
2023-05-08T05:47:10.908Z,59.55
2023-05-08T05:47:46.659Z,53.38
2023-05-08T05:48:18.975Z,44.45
2023-05-08T05:48:54.194Z,98.18
2023-05-08T05:49:26.961Z,89.63
2023-05-08T05:49:59.164Z,91.65
2023-05-08T05:50:37.915Z,98.35
2023-05-08T05:51:10.264Z,56.22
2023-05-08T05:51:45.096Z,72.55
2023-05-08T05:52:17.629Z,68.45
2023-05-08T05:52:49.819Z,48.08
2023-05-08T05:53:24.716Z,49.92
2023-05-08T05:53:57.347Z,58.70
2023-05-08T05:54:30.926Z,59.45
2023-05-08T05:55:05.794Z,26.00
2023-05-08T05:55:38.724Z,63.28
2023-05-08T05:56:11.731Z,107.47
2023-05-08T05:56:46.511Z,164.82
2023-05-08T05:57:18.922Z,83.97
2023-05-08T05:57:51.630Z,73.15
2023-05-08T05:58:26.630Z,42.42
2023-05-08T05:58:58.898Z,67.25
2023-05-08T05:59:31.991Z,73.32
2023-05-08T06:00:07.884Z,57.35
2023-05-08T06:00:47.750Z,86.38
2023-05-08T06:01:24.689Z,99.72
2023-05-08T06:01:57.298Z,69.65
2023-05-08T06:02:29.626Z,53.53
2023-05-08T06:03:04.656Z,74.65
2023-05-08T06:03:37.012Z,43.22
2023-05-08T06:04:10.051Z,80.13
2023-05-08T06:04:44.855Z,75.43
2023-05-08T06:05:18.199Z,48.95
2023-05-08T06:05:52.979Z,75.78
2023-05-08T06:06:28.063Z,60.00
2023-05-08T06:07:00.282Z,42.92
2023-05-08T06:07:32.574Z,36.08
2023-05-08T06:08:08.769Z,80.40
2023-05-08T06:08:41.097Z,78.30
2023-05-08T06:09:13.431Z,56.22
2023-05-08T06:09:48.170Z,77.30
2023-05-08T06:10:20.461Z,92.30
2023-05-08T06:10:52.952Z,89.05
2023-05-08T06:11:27.829Z,66.93
2023-05-08T06:12:00.105Z,75.90
2023-05-08T06:12:32.388Z,72.07
2023-05-08T06:13:09.210Z,97.30
2023-05-08T06:13:41.775Z,71.35
2023-05-08T06:14:13.997Z,97.40
2023-05-08T06:14:49.032Z,92.25
2023-05-08T06:15:21.563Z,53.28
2023-05-08T06:15:56.620Z,78.60
2023-05-08T06:16:32.435Z,68.10
2023-05-08T06:17:05.287Z,53.55
2023-05-08T06:17:37.854Z,65.00
2023-05-08T06:18:12.661Z,35.17
2023-05-08T06:18:44.839Z,85.63
2023-05-08T06:19:17.136Z,77.65
2023-05-08T06:19:54.251Z,68.18
2023-05-08T06:20:26.979Z,64.80
2023-05-08T06:21:01.774Z,83.43
2023-05-08T06:21:34.784Z,76.00
2023-05-08T06:22:09.573Z,114.88
2023-05-08T06:22:42.051Z,120.00
2023-05-08T06:23:17.181Z,59.13
2023-05-08T06:23:49.802Z,96.85
2023-05-08T06:24:21.963Z,48.40
2023-05-08T06:24:57.506Z,36.40
2023-05-08T06:25:31.281Z,77.00
2023-05-08T06:26:06.387Z,58.42
2023-05-08T06:26:38.833Z,85.68
2023-05-08T06:27:11.090Z,38.42
2023-05-08T06:27:46.376Z,56.88
2023-05-08T06:28:19.052Z,51.67
2023-05-08T06:28:53.915Z,89.57
2023-05-08T06:29:26.076Z,48.38
2023-05-08T06:29:58.197Z,130.65
2023-05-08T06:30:33.076Z,92.45
2023-05-08T06:31:05.443Z,56.17
2023-05-08T06:31:37.777Z,81.72
2023-05-08T06:32:12.537Z,76.80
2023-05-08T06:32:44.869Z,61.78
2023-05-08T06:33:17.138Z,66.88
2023-05-08T06:33:51.915Z,34.75
2023-05-08T06:34:24.133Z,56.78
2023-05-08T06:34:56.821Z,49.15
2023-05-08T06:35:31.566Z,39.80
2023-05-08T06:36:07.667Z,61.15
2023-05-08T06:36:42.468Z,73.30
2023-05-08T06:37:14.743Z,76.05
2023-05-08T06:37:47.212Z,30.35
2023-05-08T06:38:21.998Z,89.88
2023-05-08T06:38:54.331Z,39.22
2023-05-08T06:39:26.527Z,56.72
2023-05-08T06:40:11.653Z,50.42
2023-05-08T06:40:45.325Z,42.53
2023-05-08T06:41:20.265Z,75.00
2023-05-08T06:41:52.581Z,115.88
2023-05-08T06:42:36.610Z,96.88
2023-05-08T06:43:08.938Z,53.85
2023-05-08T06:43:41.113Z,23.88
2023-05-08T06:44:15.946Z,21.98
2023-05-08T06:44:48.134Z,30.75
2023-05-08T06:45:23.069Z,47.72
2023-05-08T06:45:55.411Z,30.13
2023-05-08T06:46:30.246Z,19.27
2023-05-08T06:47:02.897Z,23.02
2023-05-08T06:47:35.148Z,23.15
2023-05-08T06:48:10.367Z,14.75
2023-05-08T06:48:42.609Z,22.75
2023-05-08T06:49:14.914Z,14.52
2023-05-08T06:49:49.624Z,49.35
2023-05-08T06:50:22.016Z,26.73
2023-05-08T06:50:57.039Z,45.53
2023-05-08T06:51:33.025Z,20.00
2023-05-08T06:52:05.562Z,47.53
2023-05-08T06:52:40.310Z,23.17
2023-05-08T06:53:12.546Z,26.95
2023-05-08T06:53:47.537Z,21.48
2023-05-08T06:54:19.910Z,49.58
2023-05-08T06:54:52.209Z,45.38
2023-05-08T06:55:26.970Z,15.00
2023-05-08T06:55:59.383Z,30.63
2023-05-08T06:56:34.133Z,17.85
2023-05-08T06:57:06.377Z,18.27
2023-05-08T06:57:41.081Z,19.75
2023-05-08T06:58:13.303Z,13.90
2023-05-08T06:58:53.782Z,10.13
2023-05-08T06:59:39.594Z,15.30
2023-05-08T07:00:13.177Z,17.83
2023-05-08T07:00:47.938Z,22.50
2023-05-08T07:01:20.355Z,47.38
2023-05-08T07:01:52.588Z,48.00
2023-05-08T07:02:27.495Z,43.67
2023-05-08T07:02:59.744Z,53.90
2023-05-08T07:03:32.213Z,45.45
2023-05-08T07:04:07.293Z,45.97
2023-05-08T07:04:39.457Z,41.30
2023-05-08T07:05:12.064Z,25.00
2023-05-08T07:05:47.160Z,35.90
2023-05-08T07:06:19.383Z,73.00
2023-05-08T07:06:56.730Z,38.97
2023-05-08T07:07:28.901Z,45.47
2023-05-08T07:08:01.257Z,66.75
2023-05-08T07:08:36.073Z,75.68
2023-05-08T07:09:08.233Z,52.47
2023-05-08T07:09:43.135Z,45.33
2023-05-08T07:10:16.940Z,43.90
2023-05-08T07:10:49.619Z,64.35
2023-05-08T07:11:24.330Z,60.15
2023-05-08T07:11:56.495Z,56.40
2023-05-08T07:12:28.636Z,69.95
2023-05-08T07:13:03.444Z,44.13
2023-05-08T07:13:35.825Z,74.28
2023-05-08T07:14:08.292Z,43.22
2023-05-08T07:14:43.408Z,68.22
2023-05-08T07:15:25.186Z,83.80
2023-05-08T07:16:00.920Z,56.22
2023-05-08T07:16:33.312Z,40.70
2023-05-08T07:17:09.405Z,60.65
2023-05-08T07:17:41.927Z,59.85
2023-05-08T07:18:14.172Z,61.58
2023-05-08T07:18:49.028Z,69.00
2023-05-08T07:19:22.719Z,43.83
2023-05-08T07:19:54.916Z,54.53
2023-05-08T07:20:29.906Z,70.75
2023-05-08T07:21:02.705Z,102.07
2023-05-08T07:21:37.533Z,65.47
2023-05-08T07:22:12.581Z,50.38
2023-05-08T07:22:44.756Z,84.13
2023-05-08T07:23:19.687Z,104.07
2023-05-08T07:23:53.991Z,89.38
2023-05-08T07:24:26.162Z,66.00
2023-05-08T07:25:01.060Z,76.43
2023-05-08T07:25:33.221Z,80.53
2023-05-08T07:26:05.685Z,68.25
2023-05-08T07:26:40.460Z,50.05
2023-05-08T07:27:14.612Z,89.57
2023-05-08T07:27:46.888Z,40.38
2023-05-08T07:28:21.604Z,70.97
2023-05-08T07:28:54.468Z,53.45
2023-05-08T07:29:26.685Z,68.10
2023-05-08T07:30:04.329Z,92.57
2023-05-08T07:30:37.590Z,86.05
2023-05-08T07:31:09.859Z,99.68
2023-05-08T07:31:46.093Z,128.90
2023-05-08T07:32:18.326Z,76.68
2023-05-08T07:32:50.487Z,41.10
2023-05-08T07:33:25.544Z,63.40
2023-05-08T07:33:57.846Z,52.97
2023-05-08T07:34:29.980Z,62.55
2023-05-08T07:35:07.197Z,76.95
2023-05-08T07:35:41.672Z,50.08
2023-05-08T07:36:16.965Z,68.60
2023-05-08T07:36:49.114Z,42.67
2023-05-08T07:37:24.185Z,49.05
2023-05-08T07:37:58.872Z,46.50
2023-05-08T07:38:31.027Z,50.85
2023-05-08T07:39:06.041Z,56.55
2023-05-08T07:39:38.202Z,59.53